createdAt,value
2023-03-12T00:04:09.644Z,41.93
2023-03-12T00:09:17.456Z,41.23
2023-03-12T00:14:24.342Z,41.53
2023-03-12T00:19:31.358Z,39.83
2023-03-12T00:29:44.614Z,39.58
2023-03-12T00:34:56.348Z,39.27
2023-03-12T00:40:06.111Z,39.93
2023-03-12T00:45:13.870Z,40.27
2023-03-12T00:50:21.122Z,39.85
2023-03-12T00:55:27.788Z,39.65
2023-03-12T01:00:34.590Z,39.58
2023-03-12T01:05:41.756Z,40.37
2023-03-12T01:10:48.853Z,40.13
2023-03-12T01:21:03.750Z,38.40
2023-03-12T01:31:22.356Z,39.38
2023-03-12T01:36:32.368Z,39.40
2023-03-12T01:41:40.230Z,40.57
2023-03-12T01:46:48.817Z,40.17
2023-03-12T01:52:02.775Z,40.53
2023-03-12T01:57:13.790Z,39.40
2023-03-12T02:02:23.109Z,39.70
2023-03-12T02:07:31.284Z,39.93
2023-03-12T02:12:38.537Z,39.30
2023-03-12T02:17:47.090Z,39.07
2023-03-12T02:23:06.326Z,38.73
2023-03-12T02:28:17.603Z,38.85
2023-03-12T02:33:24.856Z,39.43
2023-03-12T02:38:48.054Z,38.78
2023-03-12T02:43:59.939Z,39.47
2023-03-12T02:49:08.036Z,39.30
2023-03-12T02:54:17.117Z,38.60
2023-03-12T02:59:26.925Z,39.17
2023-03-12T03:04:35.629Z,39.67
2023-03-12T03:09:43.739Z,39.50
2023-03-12T03:14:51.964Z,39.87
2023-03-12T03:19:58.963Z,39.07
2023-03-12T03:25:07.132Z,39.13
2023-03-12T03:30:15.046Z,38.60
2023-03-12T03:35:23.362Z,38.90
2023-03-12T03:40:31.818Z,38.73
2023-03-12T03:45:39.297Z,38.80
2023-03-12T03:50:47.604Z,38.83
2023-03-12T03:55:54.428Z,39.30
2023-03-12T04:01:02.660Z,39.20
2023-03-12T04:06:09.883Z,39.43
2023-03-12T04:11:20.361Z,39.37
2023-03-12T04:16:28.073Z,39.37
2023-03-12T04:21:35.060Z,39.00
2023-03-12T04:26:41.900Z,38.70
2023-03-12T04:31:49.182Z,40.00
2023-03-12T04:36:57.663Z,39.40
2023-03-12T04:42:04.495Z,39.93
2023-03-12T04:47:13.165Z,39.07
2023-03-12T04:52:20.591Z,38.90
2023-03-12T04:57:27.859Z,40.08
2023-03-12T05:02:35.836Z,39.50
2023-03-12T05:07:46.095Z,39.80
2023-03-12T05:12:54.213Z,39.70
2023-03-12T05:18:01.610Z,39.57
2023-03-12T05:23:08.512Z,39.93
2023-03-12T05:33:23.759Z,39.73
2023-03-12T05:38:31.014Z,40.50
2023-03-12T05:43:38.688Z,41.53
2023-03-12T05:48:45.541Z,40.17
2023-03-12T05:53:52.388Z,41.37
2023-03-12T05:58:59.376Z,40.67
2023-03-12T06:09:14.115Z,41.40
2023-03-12T06:14:20.866Z,41.17
2023-03-12T06:19:28.167Z,42.25
2023-03-12T06:29:41.188Z,42.13
2023-03-12T06:34:49.465Z,42.03
2023-03-12T06:39:57.026Z,42.03
2023-03-12T06:45:05.597Z,43.17
2023-03-12T06:50:13.893Z,42.98
2023-03-12T06:55:21.327Z,42.87
2023-03-12T07:00:28.827Z,43.40
2023-03-12T07:05:36.336Z,43.53
2023-03-12T07:10:43.977Z,43.10
2023-03-12T07:15:52.466Z,44.15
2023-03-12T07:21:02.272Z,44.57
2023-03-12T07:26:09.910Z,44.93
2023-03-12T07:31:17.421Z,45.20
2023-03-12T07:36:25.533Z,45.07
2023-03-12T07:41:33.930Z,46.17
2023-03-12T07:46:42.570Z,45.80
2023-03-12T07:51:50.385Z,45.97
2023-03-12T07:56:58.004Z,46.15
2023-03-12T08:02:05.428Z,46.27
2023-03-12T08:07:13.990Z,46.25
2023-03-12T08:12:20.775Z,47.57
2023-03-12T08:17:28.798Z,46.65
2023-03-12T08:22:35.584Z,47.37
2023-03-12T08:27:44.007Z,48.30
2023-03-12T08:32:52.116Z,47.07
2023-03-12T08:38:01.920Z,47.33
2023-03-12T08:43:09.246Z,47.80
2023-03-12T08:48:16.478Z,47.67
2023-03-12T08:53:28.896Z,48.70
2023-03-12T08:58:36.767Z,48.43
2023-03-12T09:03:47.341Z,48.23
2023-03-12T09:08:54.167Z,47.67
2023-03-12T09:14:42.325Z,47.83
2023-03-12T09:19:10.217Z,47.93
2023-03-12T09:24:17.156Z,47.97
2023-03-12T09:29:24.952Z,49.03
2023-03-12T09:34:31.709Z,47.75
2023-03-12T09:39:38.521Z,48.65
2023-03-12T09:44:48.845Z,48.47
2023-03-12T09:50:09.713Z,47.83
2023-03-12T09:55:20.918Z,47.77
2023-03-12T10:00:33.594Z,48.33
2023-03-12T10:06:02.027Z,48.47
2023-03-12T10:11:25.314Z,48.87
2023-03-12T10:16:49.526Z,48.73
2023-03-12T10:22:09.904Z,48.33
2023-03-12T10:27:20.929Z,48.30
2023-03-12T10:32:43.475Z,48.70
2023-03-12T10:38:05.329Z,47.83
2023-03-12T10:43:12.034Z,50.03
2023-03-12T10:48:26.239Z,47.07
2023-03-12T10:53:36.907Z,48.20
2023-03-12T10:58:47.179Z,52.50
2023-03-12T11:03:57.557Z,48.57
2023-03-12T11:09:20.436Z,51.43
2023-03-12T11:14:31.532Z,50.38
2023-03-12T11:19:40.374Z,48.73
2023-03-12T11:25:05.064Z,47.40
2023-03-12T11:30:17.262Z,48.57
2023-03-12T11:35:32.145Z,48.75
2023-03-12T11:41:02.011Z,48.33
2023-03-12T11:46:25.020Z,48.83
2023-03-12T11:51:59.787Z,48.90
2023-03-12T11:57:31.666Z,48.57
2023-03-12T12:03:07.015Z,49.63
2023-03-12T12:08:37.547Z,49.58
2023-03-12T12:14:13.920Z,49.00
2023-03-12T12:19:52.108Z,47.35
2023-03-12T12:25:27.658Z,47.83
2023-03-12T12:30:47.749Z,48.13
2023-03-12T12:35:54.998Z,48.33
2023-03-12T12:41:26.815Z,48.07
2023-03-12T12:46:40.727Z,47.73
2023-03-12T12:51:58.820Z,47.97
2023-03-12T12:57:20.614Z,47.23
2023-03-12T13:02:31.013Z,47.37
2023-03-12T13:07:39.718Z,47.47
2023-03-12T13:12:52.989Z,47.97
2023-03-12T13:18:10.520Z,47.80
2023-03-12T13:23:34.627Z,47.54
2023-03-12T13:29:11.371Z,49.10
2023-03-12T13:34:28.047Z,47.40
2023-03-12T13:39:37.417Z,47.43
2023-03-12T13:44:48.112Z,46.93
2023-03-12T13:50:07.644Z,46.75
2023-03-12T13:55:26.923Z,46.83
2023-03-12T14:00:47.687Z,46.60
2023-03-12T14:06:16.546Z,46.43
2023-03-12T14:12:03.139Z,46.60
2023-03-12T14:22:33.972Z,46.57
2023-03-12T14:27:43.191Z,47.90
2023-03-12T14:32:56.767Z,53.63
2023-03-12T14:38:17.006Z,47.43
2023-03-12T14:43:34.702Z,47.45
2023-03-12T14:48:42.362Z,47.67
2023-03-12T14:53:50.983Z,46.90
2023-03-12T14:58:59.405Z,47.70
2023-03-12T15:04:12.093Z,47.55
2023-03-12T15:09:27.405Z,46.75
2023-03-12T15:14:45.973Z,46.63
2023-03-12T15:19:54.979Z,46.57
2023-03-12T15:25:28.485Z,47.40
2023-03-12T15:30:37.169Z,46.73
2023-03-12T15:36:19.962Z,46.20
2023-03-12T15:41:47.451Z,46.10
2023-03-12T15:47:01.410Z,45.40
2023-03-12T15:52:27.993Z,46.77
2023-03-12T15:57:38.739Z,45.37
2023-03-12T16:03:00.334Z,46.23
2023-03-12T16:08:36.465Z,46.40
2023-03-12T16:13:44.482Z,46.53
2023-03-12T16:18:51.410Z,46.40
2023-03-12T16:23:59.491Z,45.43
2023-03-12T16:29:07.195Z,46.97
2023-03-12T16:34:14.538Z,49.50
2023-03-12T16:39:21.910Z,46.23
2023-03-12T16:49:37.239Z,46.50
2023-03-12T16:54:43.946Z,45.20
2023-03-12T16:59:51.745Z,47.20
2023-03-12T17:04:59.135Z,45.88
2023-03-12T17:10:08.569Z,47.10
2023-03-12T17:15:20.826Z,47.83
2023-03-12T17:20:28.563Z,46.33
2023-03-12T17:25:39.030Z,48.10
2023-03-12T17:30:47.655Z,60.07
2023-03-12T17:36:10.426Z,66.27
2023-03-12T17:41:25.960Z,50.77
2023-03-12T17:46:26.705Z,52.87
2023-03-12T17:51:35.037Z,47.58
2023-03-12T17:56:43.187Z,53.50
2023-03-12T18:01:51.390Z,51.10
2023-03-12T18:07:00.848Z,48.13
2023-03-12T18:12:08.012Z,48.17
2023-03-12T18:17:16.122Z,47.33
2023-03-12T18:22:24.736Z,48.42
2023-03-12T18:27:32.244Z,50.87
2023-03-12T18:32:40.128Z,50.13
2023-03-12T18:37:48.818Z,49.63
2023-03-12T18:43:02.402Z,48.53
2023-03-12T18:48:10.037Z,49.13
2023-03-12T18:58:24.103Z,47.30
2023-03-12T19:03:33.858Z,47.00
2023-03-12T19:08:41.426Z,48.40
2023-03-12T19:13:53.994Z,47.50
2023-03-12T19:19:02.065Z,50.37
2023-03-12T19:24:10.593Z,48.03
2023-03-12T19:29:17.925Z,48.93
2023-03-12T19:34:26.177Z,48.57
2023-03-12T19:39:36.386Z,48.97
2023-03-12T19:44:45.690Z,46.60
2023-03-12T19:49:57.023Z,46.90
2023-03-12T19:55:05.584Z,48.37
2023-03-12T20:00:13.585Z,46.87
2023-03-12T20:05:20.737Z,48.48
2023-03-12T20:10:30.478Z,46.73
2023-03-12T20:15:40.786Z,46.50
2023-03-12T20:20:49.596Z,47.17
2023-03-12T20:25:56.984Z,48.73
2023-03-12T20:31:15.437Z,46.07
2023-03-12T20:36:21.901Z,47.10
2023-03-12T20:46:34.120Z,46.63
2023-03-12T20:51:42.547Z,47.33
2023-03-12T20:56:49.504Z,47.63
2023-03-12T21:01:56.915Z,46.70
2023-03-12T21:07:07.337Z,46.97
2023-03-12T21:12:16.691Z,47.43
2023-03-12T21:17:23.737Z,47.30
2023-03-12T21:22:33.705Z,47.15
2023-03-12T21:27:50.519Z,46.77
2023-03-12T21:32:50.592Z,46.93
2023-03-12T21:37:57.524Z,46.80
2023-03-12T21:43:06.238Z,47.17
2023-03-12T21:48:15.904Z,47.78
2023-03-12T21:53:24.015Z,48.70
2023-03-12T21:58:32.850Z,46.80
2023-03-12T22:03:40.959Z,46.77
2023-03-12T22:08:52.466Z,46.83
2023-03-12T22:14:00.213Z,46.93
2023-03-12T22:19:08.176Z,47.50
2023-03-12T22:24:15.988Z,47.47
2023-03-12T22:29:23.388Z,46.90
2023-03-12T22:34:31.272Z,47.23
2023-03-12T22:39:38.574Z,46.90
2023-03-12T22:44:45.991Z,47.80
2023-03-12T22:49:53.396Z,47.50
2023-03-12T22:55:00.336Z,46.87
2023-03-12T23:00:14.974Z,50.60
2023-03-12T23:05:22.465Z,48.07
2023-03-12T23:10:29.787Z,48.57
2023-03-12T23:15:41.255Z,47.63
2023-03-12T23:20:45.691Z,48.50
2023-03-12T23:25:58.526Z,47.40
2023-03-12T23:31:08.881Z,47.37
2023-03-12T23:36:21.865Z,47.60
2023-03-12T23:41:30.477Z,47.85
2023-03-12T23:46:37.950Z,48.33
2023-03-12T23:51:44.925Z,47.58
2023-03-12T23:56:52.656Z,48.27
